sensor_id;sensor_type;location;lat;lon;timestamp;pressure;altitude;pressure_sealevel;temperature;humidity
39455;BME280;25155;41.890;23.446;2023-01-16T00:00:18;91781.75;;;-0.85;62.39
39455;BME280;25155;41.890;23.446;2023-01-16T00:02:46;91779.75;;;-0.83;62.45
39455;BME280;25155;41.890;23.446;2023-01-16T00:05:14;91779.53;;;-0.81;62.57
39455;BME280;25155;41.890;23.446;2023-01-16T00:07:42;91778.91;;;-0.76;62.52
39455;BME280;25155;41.890;23.446;2023-01-16T00:10:10;91780.47;;;-0.75;62.19
39455;BME280;25155;41.890;23.446;2023-01-16T00:12:37;91780.47;;;-0.75;62.04
39455;BME280;25155;41.890;23.446;2023-01-16T00:15:05;91772.72;;;-0.75;62.04
39455;BME280;25155;41.890;23.446;2023-01-16T00:17:32;91779.47;;;-0.74;61.87
39455;BME280;25155;41.890;23.446;2023-01-16T00:20:00;91782.03;;;-0.74;62.29
39455;BME280;25155;41.890;23.446;2023-01-16T00:22:28;91784.47;;;-0.80;62.36
39455;BME280;25155;41.890;23.446;2023-01-16T00:24:56;91784.53;;;-0.86;62.64
39455;BME280;25155;41.890;23.446;2023-01-16T00:27:23;91785.97;;;-0.90;62.32
39455;BME280;25155;41.890;23.446;2023-01-16T00:29:50;91777.13;;;-0.94;62.51
39455;BME280;25155;41.890;23.446;2023-01-16T00:32:17;91776.75;;;-0.98;62.56
39455;BME280;25155;41.890;23.446;2023-01-16T00:34:45;91788.25;;;-1.01;62.34
39455;BME280;25155;41.890;23.446;2023-01-16T00:37:12;91794.38;;;-1.02;63.08
39455;BME280;25155;41.890;23.446;2023-01-16T00:39:41;91793.88;;;-1.10;62.40
39455;BME280;25155;41.890;23.446;2023-01-16T00:42:08;91790.41;;;-1.16;63.04
39455;BME280;25155;41.890;23.446;2023-01-16T00:44:35;91788.88;;;-1.24;62.58
39455;BME280;25155;41.890;23.446;2023-01-16T00:47:03;91785.38;;;-1.29;62.83
39455;BME280;25155;41.890;23.446;2023-01-16T00:49:31;91777.06;;;-1.31;62.51
39455;BME280;25155;41.890;23.446;2023-01-16T00:51:58;91771.50;;;-1.28;62.95
39455;BME280;25155;41.890;23.446;2023-01-16T00:54:26;91785.94;;;-1.27;62.68
39455;BME280;25155;41.890;23.446;2023-01-16T00:56:54;91773.88;;;-1.27;62.79
39455;BME280;25155;41.890;23.446;2023-01-16T00:59:21;91773.66;;;-1.25;62.93
39455;BME280;25155;41.890;23.446;2023-01-16T01:01:49;91773.09;;;-1.27;62.47
39455;BME280;25155;41.890;23.446;2023-01-16T01:04:16;91765.38;;;-1.27;62.37
39455;BME280;25155;41.890;23.446;2023-01-16T01:06:43;91766.16;;;-1.27;62.73
39455;BME280;25155;41.890;23.446;2023-01-16T01:09:10;91761.78;;;-1.26;62.49
39455;BME280;25155;41.890;23.446;2023-01-16T01:11:38;91757.25;;;-1.24;62.69
39455;BME280;25155;41.890;23.446;2023-01-16T01:14:06;91765.38;;;-1.27;62.35
39455;BME280;25155;41.890;23.446;2023-01-16T01:16:33;91760.81;;;-1.25;63.46
39455;BME280;25155;41.890;23.446;2023-01-16T01:19:01;91759.66;;;-1.29;63.16
39455;BME280;25155;41.890;23.446;2023-01-16T01:21:28;91756.72;;;-1.33;63.27
39455;BME280;25155;41.890;23.446;2023-01-16T01:23:55;91759.34;;;-1.40;63.45
39455;BME280;25155;41.890;23.446;2023-01-16T01:26:22;91760.22;;;-1.46;63.27
39455;BME280;25155;41.890;23.446;2023-01-16T01:28:50;91753.13;;;-1.50;63.31
39455;BME280;25155;41.890;23.446;2023-01-16T01:31:18;91755.13;;;-1.53;63.45
39455;BME280;25155;41.890;23.446;2023-01-16T01:33:46;91753.69;;;-1.48;63.58
39455;BME280;25155;41.890;23.446;2023-01-16T01:36:13;91748.75;;;-1.50;64.32
39455;BME280;25155;41.890;23.446;2023-01-16T01:38:40;91747.03;;;-1.56;63.82
39455;BME280;25155;41.890;23.446;2023-01-16T01:41:11;91744.31;;;-1.61;64.12
39455;BME280;25155;41.890;23.446;2023-01-16T01:43:42;91744.91;;;-1.59;64.10
39455;BME280;25155;41.890;23.446;2023-01-16T01:46:19;91744.72;;;-1.58;63.94
39455;BME280;25155;41.890;23.446;2023-01-16T01:48:50;91741.13;;;-1.57;64.09
39455;BME280;25155;41.890;23.446;2023-01-16T01:51:21;91742.91;;;-1.57;64.13
39455;BME280;25155;41.890;23.446;2023-01-16T01:53:53;91731.41;;;-1.55;64.18
39455;BME280;25155;41.890;23.446;2023-01-16T01:56:24;91732.22;;;-1.54;63.67
39455;BME280;25155;41.890;23.446;2023-01-16T01:58:56;91725.84;;;-1.52;63.66
39455;BME280;25155;41.890;23.446;2023-01-16T02:01:28;91729.44;;;-1.53;63.70
39455;BME280;25155;41.890;23.446;2023-01-16T02:03:59;91719.94;;;-1.52;63.87
39455;BME280;25155;41.890;23.446;2023-01-16T02:06:36;91722.34;;;-1.57;64.02
39455;BME280;25155;41.890;23.446;2023-01-16T02:09:07;91721.56;;;-1.58;63.99
39455;BME280;25155;41.890;23.446;2023-01-16T02:11:37;91719.78;;;-1.57;63.81
39455;BME280;25155;41.890;23.446;2023-01-16T02:14:09;91723.13;;;-1.57;63.75
39455;BME280;25155;41.890;23.446;2023-01-16T02:16:40;91720.56;;;-1.57;63.44
39455;BME280;25155;41.890;23.446;2023-01-16T02:19:35;91721.19;;;-1.61;63.59
39455;BME280;25155;41.890;23.446;2023-01-16T02:22:29;91707.41;;;-1.67;63.60
39455;BME280;25155;41.890;23.446;2023-01-16T02:25:27;91709.41;;;-1.69;63.44
39455;BME280;25155;41.890;23.446;2023-01-16T02:31:13;91703.91;;;-1.73;63.56
39455;BME280;25155;41.890;23.446;2023-01-16T02:33:55;91698.34;;;-1.69;64.05
39455;BME280;25155;41.890;23.446;2023-01-16T02:36:36;91698.94;;;-1.67;63.91
39455;BME280;25155;41.890;23.446;2023-01-16T02:39:18;91697.91;;;-1.66;63.79
39455;BME280;25155;41.890;23.446;2023-01-16T02:41:52;91687.22;;;-1.63;63.86
39455;BME280;25155;41.890;23.446;2023-01-16T02:44:29;91683.66;;;-1.62;64.24
39455;BME280;25155;41.890;23.446;2023-01-16T02:47:10;91685.47;;;-1.69;64.67
39455;BME280;25155;41.890;23.446;2023-01-16T02:49:42;91676.63;;;-1.74;64.94
39455;BME280;25155;41.890;23.446;2023-01-16T02:52:13;91682.91;;;-1.69;64.66
39455;BME280;25155;41.890;23.446;2023-01-16T02:54:48;91681.94;;;-1.68;64.79
39455;BME280;25155;41.890;23.446;2023-01-16T02:57:21;91683.31;;;-1.66;65.08
39455;BME280;25155;41.890;23.446;2023-01-16T02:59:50;91684.56;;;-1.75;65.79
39455;BME280;25155;41.890;23.446;2023-01-16T03:02:19;91683.09;;;-1.90;66.36
39455;BME280;25155;41.890;23.446;2023-01-16T03:04:47;91688.66;;;-1.93;66.20
39455;BME280;25155;41.890;23.446;2023-01-16T03:07:56;91682.78;;;-2.00;66.22
39455;BME280;25155;41.890;23.446;2023-01-16T03:10:42;91668.91;;;-1.92;66.13
39455;BME280;25155;41.890;23.446;2023-01-16T03:13:22;91676.75;;;-1.87;65.74
39455;BME280;25155;41.890;23.446;2023-01-16T03:15:57;91681.47;;;-1.84;65.53
39455;BME280;25155;41.890;23.446;2023-01-16T03:18:34;91673.78;;;-1.84;65.52
39455;BME280;25155;41.890;23.446;2023-01-16T03:21:09;91678.72;;;-1.82;65.21
39455;BME280;25155;41.890;23.446;2023-01-16T03:23:49;91673.34;;;-1.81;64.89
39455;BME280;25155;41.890;23.446;2023-01-16T03:26:23;91669.78;;;-1.80;64.91
39455;BME280;25155;41.890;23.446;2023-01-16T03:29:00;91668.56;;;-1.77;64.87
39455;BME280;25155;41.890;23.446;2023-01-16T03:31:36;91672.50;;;-1.75;64.96
39455;BME280;25155;41.890;23.446;2023-01-16T03:34:12;91662.81;;;-1.73;64.98
39455;BME280;25155;41.890;23.446;2023-01-16T03:36:48;91667.50;;;-1.69;64.91
39455;BME280;25155;41.890;23.446;2023-01-16T03:39:22;91661.16;;;-1.67;65.15
39455;BME280;25155;41.890;23.446;2023-01-16T03:41:53;91651.44;;;-1.65;65.14
39455;BME280;25155;41.890;23.446;2023-01-16T03:44:25;91652.88;;;-1.69;65.28
39455;BME280;25155;41.890;23.446;2023-01-16T03:46:56;91655.53;;;-1.76;65.60
39455;BME280;25155;41.890;23.446;2023-01-16T03:49:31;91653.78;;;-1.82;66.25
39455;BME280;25155;41.890;23.446;2023-01-16T03:52:01;91652.81;;;-1.81;66.19
39455;BME280;25155;41.890;23.446;2023-01-16T03:54:34;91650.81;;;-1.79;65.71
39455;BME280;25155;41.890;23.446;2023-01-16T03:57:08;91649.38;;;-1.75;65.83
39455;BME280;25155;41.890;23.446;2023-01-16T03:59:38;91641.59;;;-1.68;65.70
39455;BME280;25155;41.890;23.446;2023-01-16T04:02:11;91640.81;;;-1.68;65.90
39455;BME280;25155;41.890;23.446;2023-01-16T04:04:44;91637.81;;;-1.65;65.81
39455;BME280;25155;41.890;23.446;2023-01-16T04:07:18;91645.66;;;-1.60;65.92
39455;BME280;25155;41.890;23.446;2023-01-16T04:09:51;91639.34;;;-1.58;65.78
39455;BME280;25155;41.890;23.446;2023-01-16T04:12:22;91638.19;;;-1.62;66.21
39455;BME280;25155;41.890;23.446;2023-01-16T04:14:54;91649.81;;;-1.59;66.06
39455;BME280;25155;41.890;23.446;2023-01-16T04:17:23;91642.47;;;-1.56;66.20
39455;BME280;25155;41.890;23.446;2023-01-16T04:19:52;91640.88;;;-1.57;65.73
39455;BME280;25155;41.890;23.446;2023-01-16T04:22:21;91643.03;;;-1.54;65.95
39455;BME280;25155;41.890;23.446;2023-01-16T04:24:50;91638.44;;;-1.52;65.69
39455;BME280;25155;41.890;23.446;2023-01-16T04:27:17;91640.47;;;-1.54;66.46
39455;BME280;25155;41.890;23.446;2023-01-16T04:29:45;91645.09;;;-1.62;67.14
39455;BME280;25155;41.890;23.446;2023-01-16T04:32:13;91646.53;;;-1.66;67.31
39455;BME280;25155;41.890;23.446;2023-01-16T04:34:41;91640.97;;;-1.63;66.70
39455;BME280;25155;41.890;23.446;2023-01-16T04:37:12;91635.25;;;-1.65;66.48
39455;BME280;25155;41.890;23.446;2023-01-16T04:39:40;91630.69;;;-1.63;66.25
39455;BME280;25155;41.890;23.446;2023-01-16T04:42:07;91629.91;;;-1.64;66.00
39455;BME280;25155;41.890;23.446;2023-01-16T04:44:35;91634.63;;;-1.61;66.30
39455;BME280;25155;41.890;23.446;2023-01-16T04:47:02;91637.81;;;-1.65;66.10
39455;BME280;25155;41.890;23.446;2023-01-16T04:49:29;91641.31;;;-1.60;65.50
39455;BME280;25155;41.890;23.446;2023-01-16T04:51:57;91632.47;;;-1.64;65.79
39455;BME280;25155;41.890;23.446;2023-01-16T04:54:26;91634.09;;;-1.69;65.31
39455;BME280;25155;41.890;23.446;2023-01-16T04:56:53;91628.97;;;-1.69;65.41
39455;BME280;25155;41.890;23.446;2023-01-16T04:59:20;91628.97;;;-1.69;65.26
39455;BME280;25155;41.890;23.446;2023-01-16T05:01:47;91633.09;;;-1.68;65.49
39455;BME280;25155;41.890;23.446;2023-01-16T05:04:15;91630.31;;;-1.67;65.37
39455;BME280;25155;41.890;23.446;2023-01-16T05:06:43;91628.38;;;-1.72;65.00
39455;BME280;25155;41.890;23.446;2023-01-16T05:09:10;91631.38;;;-1.75;65.02
39455;BME280;25155;41.890;23.446;2023-01-16T05:11:42;91623.69;;;-1.75;65.32
39455;BME280;25155;41.890;23.446;2023-01-16T05:14:09;91633.63;;;-2.03;65.49
39455;BME280;25155;41.890;23.446;2023-01-16T05:16:37;91633.00;;;-1.99;66.45
39455;BME280;25155;41.890;23.446;2023-01-16T05:19:08;91627.72;;;-2.04;66.24
39455;BME280;25155;41.890;23.446;2023-01-16T05:21:35;91633.00;;;-1.99;65.82
39455;BME280;25155;41.890;23.446;2023-01-16T05:24:03;91631.84;;;-2.03;66.05
39455;BME280;25155;41.890;23.446;2023-01-16T05:26:30;91629.06;;;-2.01;65.66
39455;BME280;25155;41.890;23.446;2023-01-16T05:28:59;91633.44;;;-2.02;66.03
39455;BME280;25155;41.890;23.446;2023-01-16T05:31:26;91622.16;;;-2.01;65.72
39455;BME280;25155;41.890;23.446;2023-01-16T05:33:53;91618.38;;;-1.98;65.65
39455;BME280;25155;41.890;23.446;2023-01-16T05:36:21;91620.94;;;-1.98;65.28
39455;BME280;25155;41.890;23.446;2023-01-16T05:38:48;91625.88;;;-1.97;65.08
39455;BME280;25155;41.890;23.446;2023-01-16T05:41:16;91620.94;;;-1.98;64.86
39455;BME280;25155;41.890;23.446;2023-01-16T05:43:43;91607.53;;;-2.00;64.90
39455;BME280;25155;41.890;23.446;2023-01-16T05:46:12;91610.75;;;-2.05;64.97
39455;BME280;25155;41.890;23.446;2023-01-16T05:48:39;91605.81;;;-2.06;65.26
39455;BME280;25155;41.890;23.446;2023-01-16T05:51:06;91597.13;;;-2.05;65.18
39455;BME280;25155;41.890;23.446;2023-01-16T05:53:34;91604.22;;;-2.08;65.04
39455;BME280;25155;41.890;23.446;2023-01-16T05:56:07;91599.56;;;-2.17;65.02
39455;BME280;25155;41.890;23.446;2023-01-16T05:58:34;91606.50;;;-2.18;65.06
39455;BME280;25155;41.890;23.446;2023-01-16T06:01:01;91605.72;;;-2.18;65.00
39455;BME280;25155;41.890;23.446;2023-01-16T06:03:30;91602.81;;;-2.22;65.71
39455;BME280;25155;41.890;23.446;2023-01-16T06:05:57;91604.78;;;-2.24;65.60
39455;BME280;25155;41.890;23.446;2023-01-16T06:08:26;91600.09;;;-2.27;65.96
39455;BME280;25155;41.890;23.446;2023-01-16T06:10:53;91603.84;;;-2.30;66.42
39455;BME280;25155;41.890;23.446;2023-01-16T06:13:21;91591.56;;;-2.28;67.49
39455;BME280;25155;41.890;23.446;2023-01-16T06:15:48;91592.66;;;-2.35;66.90
39455;BME280;25155;41.890;23.446;2023-01-16T06:18:15;91592.25;;;-2.39;67.09
39455;BME280;25155;41.890;23.446;2023-01-16T06:20:44;91595.06;;;-2.40;67.01
39455;BME280;25155;41.890;23.446;2023-01-16T06:23:11;91596.97;;;-2.36;67.11
39455;BME280;25155;41.890;23.446;2023-01-16T06:25:38;91593.22;;;-2.33;67.30
39455;BME280;25155;41.890;23.446;2023-01-16T06:28:06;91595.78;;;-2.33;67.90
39455;BME280;25155;41.890;23.446;2023-01-16T06:30:33;91596.78;;;-2.34;68.26
39455;BME280;25155;41.890;23.446;2023-01-16T06:33:00;91595.38;;;-2.30;67.57
39455;BME280;25155;41.890;23.446;2023-01-16T06:35:28;91594.94;;;-2.27;67.77
39455;BME280;25155;41.890;23.446;2023-01-16T06:37:56;91596.50;;;-2.26;67.92
39455;BME280;25155;41.890;23.446;2023-01-16T06:40:23;91592.38;;;-2.27;68.39
39455;BME280;25155;41.890;23.446;2023-01-16T06:42:51;91590.59;;;-2.27;68.48
39455;BME280;25155;41.890;23.446;2023-01-16T06:45:18;91590.75;;;-2.21;68.40
39455;BME280;25155;41.890;23.446;2023-01-16T06:47:51;91591.31;;;-2.19;68.08
39455;BME280;25155;41.890;23.446;2023-01-16T06:50:18;91589.69;;;-2.14;68.30
39455;BME280;25155;41.890;23.446;2023-01-16T06:52:47;91583.41;;;-2.18;69.41
39455;BME280;25155;41.890;23.446;2023-01-16T06:55:16;91578.25;;;-2.18;69.26
39455;BME280;25155;41.890;23.446;2023-01-16T06:57:43;91572.91;;;-2.16;69.68
39455;BME280;25155;41.890;23.446;2023-01-16T07:00:11;91571.72;;;-2.14;69.64
39455;BME280;25155;41.890;23.446;2023-01-16T07:02:39;91583.25;;;-2.04;69.25
39455;BME280;25155;41.890;23.446;2023-01-16T07:05:07;91582.44;;;-1.98;68.91
39455;BME280;25155;41.890;23.446;2023-01-16T07:07:35;91591.84;;;-1.92;68.84
39455;BME280;25155;41.890;23.446;2023-01-16T07:10:03;91603.63;;;-1.84;68.92
39455;BME280;25155;41.890;23.446;2023-01-16T07:12:31;91597.63;;;-1.78;68.79
39455;BME280;25155;41.890;23.446;2023-01-16T07:14:58;91596.56;;;-1.71;69.25
39455;BME280;25155;41.890;23.446;2023-01-16T07:17:43;91598.25;;;-1.64;69.00
39455;BME280;25155;41.890;23.446;2023-01-16T07:20:27;91593.84;;;-1.57;68.99
39455;BME280;25155;41.890;23.446;2023-01-16T07:23:17;91584.97;;;-1.61;71.00
39455;BME280;25155;41.890;23.446;2023-01-16T07:25:45;91592.56;;;-1.66;71.15
39455;BME280;25155;41.890;23.446;2023-01-16T07:28:14;91591.78;;;-1.67;71.02
39455;BME280;25155;41.890;23.446;2023-01-16T07:30:43;91576.84;;;-1.58;71.09
39455;BME280;25155;41.890;23.446;2023-01-16T07:33:11;91577.91;;;-1.47;71.12
39455;BME280;25155;41.890;23.446;2023-01-16T07:35:38;91593.81;;;-1.39;71.52
39455;BME280;25155;41.890;23.446;2023-01-16T07:38:05;91594.16;;;-1.35;71.22
39455;BME280;25155;41.890;23.446;2023-01-16T07:40:33;91597.53;;;-1.35;71.11
39455;BME280;25155;41.890;23.446;2023-01-16T07:43:00;91603.38;;;-1.27;70.96
39455;BME280;25155;41.890;23.446;2023-01-16T07:45:28;91586.63;;;-1.18;71.07
39455;BME280;25155;41.890;23.446;2023-01-16T07:47:56;91592.41;;;-1.04;71.37
39455;BME280;25155;41.890;23.446;2023-01-16T07:50:23;91580.44;;;-0.99;70.77
39455;BME280;25155;41.890;23.446;2023-01-16T07:52:50;91570.66;;;-0.90;70.58
39455;BME280;25155;41.890;23.446;2023-01-16T07:55:17;91566.41;;;-0.84;70.64
39455;BME280;25155;41.890;23.446;2023-01-16T07:57:45;91567.66;;;-0.75;70.41
39455;BME280;25155;41.890;23.446;2023-01-16T08:00:13;91571.25;;;-0.64;69.89
39455;BME280;25155;41.890;23.446;2023-01-16T08:02:42;91570.16;;;-0.56;70.20
39455;BME280;25155;41.890;23.446;2023-01-16T08:05:10;91572.63;;;-0.50;69.96
39455;BME280;25155;41.890;23.446;2023-01-16T08:07:38;91567.38;;;-0.43;69.60
39455;BME280;25155;41.890;23.446;2023-01-16T08:10:05;91568.91;;;-0.42;69.17
39455;BME280;25155;41.890;23.446;2023-01-16T08:12:33;91568.47;;;-0.39;68.74
39455;BME280;25155;41.890;23.446;2023-01-16T08:15:00;91572.41;;;-0.36;68.71
39455;BME280;25155;41.890;23.446;2023-01-16T08:17:27;91568.59;;;-0.34;68.95
39455;BME280;25155;41.890;23.446;2023-01-16T08:19:56;91565.03;;;-0.33;68.68
39455;BME280;25155;41.890;23.446;2023-01-16T08:22:23;91571.84;;;-0.27;68.65
39455;BME280;25155;41.890;23.446;2023-01-16T08:24:50;91572.19;;;-0.23;68.32
39455;BME280;25155;41.890;23.446;2023-01-16T08:27:17;91571.53;;;-0.18;68.76
39455;BME280;25155;41.890;23.446;2023-01-16T08:29:45;91565.47;;;-0.12;68.43
39455;BME280;25155;41.890;23.446;2023-01-16T08:32:12;91567.69;;;-0.04;68.52
39455;BME280;25155;41.890;23.446;2023-01-16T08:34:41;91563.91;;;-0.01;68.37
39455;BME280;25155;41.890;23.446;2023-01-16T08:37:10;91564.44;;;0.01;68.62
39455;BME280;25155;41.890;23.446;2023-01-16T08:39:37;91559.84;;;0.03;69.52
39455;BME280;25155;41.890;23.446;2023-01-16T08:42:04;91561.75;;;0.07;69.48
39455;BME280;25155;41.890;23.446;2023-01-16T08:44:49;91555.72;;;0.13;69.80
39455;BME280;25155;41.890;23.446;2023-01-16T08:47:33;91558.16;;;0.20;69.66
39455;BME280;25155;41.890;23.446;2023-01-16T08:50:18;91562.88;;;0.23;70.05
39455;BME280;25155;41.890;23.446;2023-01-16T08:53:07;91550.75;;;0.24;70.17
39455;BME280;25155;41.890;23.446;2023-01-16T08:55:34;91553.09;;;0.25;70.76
39455;BME280;25155;41.890;23.446;2023-01-16T08:58:01;91550.31;;;0.27;70.28
39455;BME280;25155;41.890;23.446;2023-01-16T09:00:29;91552.97;;;0.32;70.53
39455;BME280;25155;41.890;23.446;2023-01-16T09:02:56;91545.34;;;0.37;70.62
39455;BME280;25155;41.890;23.446;2023-01-16T09:05:25;91545.66;;;0.41;70.05
39455;BME280;25155;41.890;23.446;2023-01-16T09:07:53;91547.78;;;0.44;70.00
39455;BME280;25155;41.890;23.446;2023-01-16T09:10:22;91542.72;;;0.49;69.68
39455;BME280;25155;41.890;23.446;2023-01-16T09:12:50;91539.69;;;0.52;69.13
39455;BME280;25155;41.890;23.446;2023-01-16T09:15:34;91530.88;;;0.48;68.98
39455;BME280;25155;41.890;23.446;2023-01-16T09:18:02;91527.84;;;0.51;68.77
39455;BME280;25155;41.890;23.446;2023-01-16T09:20:29;91522.53;;;0.58;68.65
39455;BME280;25155;41.890;23.446;2023-01-16T09:22:57;91518.47;;;0.62;68.58
39455;BME280;25155;41.890;23.446;2023-01-16T09:25:26;91507.69;;;0.65;68.49
39455;BME280;25155;41.890;23.446;2023-01-16T09:27:53;91498.81;;;0.73;68.17
39455;BME280;25155;41.890;23.446;2023-01-16T09:30:21;91500.44;;;0.79;68.58
39455;BME280;25155;41.890;23.446;2023-01-16T09:32:48;91503.13;;;0.84;68.03
39455;BME280;25155;41.890;23.446;2023-01-16T09:35:15;91497.84;;;0.91;67.92
39455;BME280;25155;41.890;23.446;2023-01-16T09:37:43;91497.69;;;0.97;67.96
39455;BME280;25155;41.890;23.446;2023-01-16T09:40:13;91501.91;;;1.03;68.07
39455;BME280;25155;41.890;23.446;2023-01-16T09:42:52;91494.25;;;1.09;67.89
39455;BME280;25155;41.890;23.446;2023-01-16T09:45:43;91483.75;;;1.15;67.78
39455;BME280;25155;41.890;23.446;2023-01-16T09:48:16;91477.66;;;1.21;67.36
39455;BME280;25155;41.890;23.446;2023-01-16T09:50:51;91468.38;;;1.20;66.89
39455;BME280;25155;41.890;23.446;2023-01-16T09:53:26;91465.31;;;1.23;66.52
39455;BME280;25155;41.890;23.446;2023-01-16T09:56:16;91457.63;;;1.29;66.78
39455;BME280;25155;41.890;23.446;2023-01-16T09:59:16;91454.66;;;1.37;66.67
39455;BME280;25155;41.890;23.446;2023-01-16T10:01:52;91449.97;;;1.51;67.20
39455;BME280;25155;41.890;23.446;2023-01-16T10:04:22;91447.03;;;1.64;67.17
39455;BME280;25155;41.890;23.446;2023-01-16T10:07:01;91444.28;;;1.71;66.31
39455;BME280;25155;41.890;23.446;2023-01-16T10:09:38;91431.84;;;1.68;65.36
39455;BME280;25155;41.890;23.446;2023-01-16T10:12:11;91430.53;;;1.65;64.57
39455;BME280;25155;41.890;23.446;2023-01-16T10:15:01;91422.97;;;1.58;64.72
39455;BME280;25155;41.890;23.446;2023-01-16T10:17:37;91415.44;;;1.57;64.46
39455;BME280;25155;41.890;23.446;2023-01-16T10:20:26;91421.03;;;1.49;64.26
39455;BME280;25155;41.890;23.446;2023-01-16T10:23:04;91421.50;;;1.46;64.30
39455;BME280;25155;41.890;23.446;2023-01-16T10:25:41;91417.56;;;1.43;64.61
39455;BME280;25155;41.890;23.446;2023-01-16T10:28:24;91408.75;;;1.39;64.74
39455;BME280;25155;41.890;23.446;2023-01-16T10:30:58;91412.63;;;1.41;65.03
39455;BME280;25155;41.890;23.446;2023-01-16T10:33:30;91403.47;;;1.51;65.16
39455;BME280;25155;41.890;23.446;2023-01-16T10:36:01;91398.97;;;1.63;65.15
39455;BME280;25155;41.890;23.446;2023-01-16T10:38:34;91401.13;;;1.71;65.12
39455;BME280;25155;41.890;23.446;2023-01-16T10:41:14;91386.44;;;1.72;64.35
39455;BME280;25155;41.890;23.446;2023-01-16T10:43:57;91388.22;;;1.71;64.28
39455;BME280;25155;41.890;23.446;2023-01-16T10:46:43;91384.34;;;1.69;64.20
39455;BME280;25155;41.890;23.446;2023-01-16T10:49:28;91374.28;;;1.72;64.28
39455;BME280;25155;41.890;23.446;2023-01-16T10:51:57;91373.03;;;1.75;63.80
39455;BME280;25155;41.890;23.446;2023-01-16T10:54:25;91381.38;;;1.82;64.23
39455;BME280;25155;41.890;23.446;2023-01-16T10:56:52;91368.72;;;1.80;64.36
39455;BME280;25155;41.890;23.446;2023-01-16T10:59:23;91357.91;;;1.84;64.41
39455;BME280;25155;41.890;23.446;2023-01-16T11:01:56;91361.06;;;1.91;64.11
39455;BME280;25155;41.890;23.446;2023-01-16T11:04:33;91347.97;;;1.97;63.97
39455;BME280;25155;41.890;23.446;2023-01-16T11:07:16;91337.00;;;2.12;64.62
39455;BME280;25155;41.890;23.446;2023-01-16T11:09:44;91346.31;;;2.41;64.98
39455;BME280;25155;41.890;23.446;2023-01-16T11:12:18;91347.50;;;2.60;64.59
39455;BME280;25155;41.890;23.446;2023-01-16T11:15:12;91353.34;;;2.78;64.02
39455;BME280;25155;41.890;23.446;2023-01-16T11:18:22;91338.00;;;2.98;63.47
39455;BME280;25155;41.890;23.446;2023-01-16T11:20:59;91336.84;;;3.21;63.79
39455;BME280;25155;41.890;23.446;2023-01-16T11:23:37;91332.00;;;3.40;63.37
39455;BME280;25155;41.890;23.446;2023-01-16T11:26:06;91329.53;;;3.61;62.51
39455;BME280;25155;41.890;23.446;2023-01-16T11:28:34;91333.50;;;3.79;62.65
39455;BME280;25155;41.890;23.446;2023-01-16T11:31:06;91329.63;;;3.92;60.61
39455;BME280;25155;41.890;23.446;2023-01-16T11:33:37;91317.22;;;4.04;61.04
39455;BME280;25155;41.890;23.446;2023-01-16T11:36:09;91314.94;;;4.23;60.37
39455;BME280;25155;41.890;23.446;2023-01-16T11:38:38;91305.09;;;4.41;60.29
39455;BME280;25155;41.890;23.446;2023-01-16T11:41:10;91307.69;;;4.56;58.05
39455;BME280;25155;41.890;23.446;2023-01-16T11:43:37;91304.31;;;4.71;58.60
39455;BME280;25155;41.890;23.446;2023-01-16T11:46:32;91300.97;;;4.75;58.17
39455;BME280;25155;41.890;23.446;2023-01-16T11:49:04;91301.19;;;4.84;58.25
39455;BME280;25155;41.890;23.446;2023-01-16T11:51:36;91303.81;;;4.94;58.45
39455;BME280;25155;41.890;23.446;2023-01-16T11:54:12;91298.88;;;4.98;57.55
39455;BME280;25155;41.890;23.446;2023-01-16T11:56:50;91296.53;;;4.97;58.02
39455;BME280;25155;41.890;23.446;2023-01-16T11:59:43;91291.84;;;4.99;57.93
39455;BME280;25155;41.890;23.446;2023-01-16T12:02:41;91287.69;;;4.92;57.86
39455;BME280;25155;41.890;23.446;2023-01-16T12:05:22;91288.22;;;5.05;58.40
39455;BME280;25155;41.890;23.446;2023-01-16T12:08:21;91274.16;;;5.16;57.11
39455;BME280;25155;41.890;23.446;2023-01-16T12:11:00;91274.13;;;5.26;56.91
39455;BME280;25155;41.890;23.446;2023-01-16T12:13:38;91269.94;;;5.41;57.09
39455;BME280;25155;41.890;23.446;2023-01-16T12:16:30;91279.53;;;5.56;56.07
39455;BME280;25155;41.890;23.446;2023-01-16T12:19:12;91269.06;;;5.71;56.22
39455;BME280;25155;41.890;23.446;2023-01-16T12:21:50;91264.84;;;5.85;55.81
39455;BME280;25155;41.890;23.446;2023-01-16T12:24:31;91253.88;;;5.89;53.47
39455;BME280;25155;41.890;23.446;2023-01-16T12:27:12;91243.44;;;5.99;54.81
39455;BME280;25155;41.890;23.446;2023-01-16T12:29:53;91234.50;;;6.10;54.35
39455;BME280;25155;41.890;23.446;2023-01-16T12:32:39;91231.09;;;6.15;54.23
39455;BME280;25155;41.890;23.446;2023-01-16T12:38:14;91229.31;;;6.15;52.86
39455;BME280;25155;41.890;23.446;2023-01-16T12:43:51;91217.09;;;6.11;53.25
39455;BME280;25155;41.890;23.446;2023-01-16T12:46:26;91220.47;;;6.11;53.43
39455;BME280;25155;41.890;23.446;2023-01-16T12:49:07;91223.88;;;6.07;52.34
39455;BME280;25155;41.890;23.446;2023-01-16T12:51:49;91222.84;;;6.08;52.93
39455;BME280;25155;41.890;23.446;2023-01-16T12:54:35;91216.09;;;6.01;52.31
39455;BME280;25155;41.890;23.446;2023-01-16T12:57:25;91213.84;;;5.90;51.30
39455;BME280;25155;41.890;23.446;2023-01-16T13:00:00;91231.06;;;5.75;51.33
39455;BME280;25155;41.890;23.446;2023-01-16T13:02:33;91217.59;;;5.68;51.74
39455;BME280;25155;41.890;23.446;2023-01-16T13:05:05;91206.69;;;5.71;52.37
39455;BME280;25155;41.890;23.446;2023-01-16T13:07:45;91206.13;;;5.74;52.78
39455;BME280;25155;41.890;23.446;2023-01-16T13:10:20;91198.06;;;5.76;52.90
39455;BME280;25155;41.890;23.446;2023-01-16T13:13:13;91187.72;;;5.65;51.88
39455;BME280;25155;41.890;23.446;2023-01-16T13:15:52;91204.94;;;5.56;51.63
39455;BME280;25155;41.890;23.446;2023-01-16T13:18:23;91205.50;;;5.48;51.27
39455;BME280;25155;41.890;23.446;2023-01-16T13:20:54;91199.78;;;5.41;51.19
39455;BME280;25155;41.890;23.446;2023-01-16T13:23:24;91185.75;;;5.37;51.46
39455;BME280;25155;41.890;23.446;2023-01-16T13:25:57;91185.75;;;5.37;51.47
39455;BME280;25155;41.890;23.446;2023-01-16T13:28:36;91188.63;;;5.35;51.46